createdAt,value
2023-02-04T07:27:02.249Z,12.40
2023-02-04T07:29:30.470Z,12.73
2023-02-04T07:31:58.599Z,8.17
2023-02-04T07:34:26.587Z,7.73
2023-02-04T07:36:55.057Z,7.33
2023-02-04T07:39:22.961Z,9.20
2023-02-04T07:41:51.052Z,4.73
2023-02-04T07:44:18.945Z,10.00
2023-02-04T07:46:46.910Z,8.90
2023-02-04T07:49:14.923Z,5.83
2023-02-04T07:51:42.815Z,10.17
2023-02-04T07:54:12.140Z,4.60
2023-02-04T07:56:40.002Z,11.60
2023-02-04T07:59:08.107Z,4.43
2023-02-04T08:01:36.013Z,1.60
2023-02-04T08:04:04.221Z,4.67
2023-02-04T08:06:32.155Z,5.57
2023-02-04T08:08:59.985Z,5.73
2023-02-04T08:11:28.227Z,5.70
2023-02-04T08:13:56.076Z,3.53
2023-02-04T08:16:24.155Z,2.67
2023-02-04T08:18:52.091Z,4.27
2023-02-04T08:21:20.345Z,3.63
2023-02-04T08:23:48.247Z,5.10
2023-02-04T08:26:16.185Z,2.87
2023-02-04T08:28:44.069Z,3.17
2023-02-04T08:31:12.243Z,4.27
2023-02-04T08:33:40.285Z,3.77
2023-02-04T08:36:08.740Z,3.30
2023-02-04T08:38:36.661Z,3.27
2023-02-04T08:41:05.127Z,3.00
2023-02-04T08:43:33.055Z,4.17
2023-02-04T08:46:00.920Z,5.23
2023-02-04T08:48:28.925Z,3.97
2023-02-04T08:50:56.859Z,2.07
2023-02-04T08:53:24.716Z,3.53
2023-02-04T08:55:52.585Z,2.53
2023-02-04T08:58:20.460Z,2.17
2023-02-04T09:00:48.620Z,3.47
2023-02-04T09:03:16.600Z,2.73
2023-02-04T09:05:46.949Z,1.33
2023-02-04T09:08:15.794Z,3.67
2023-02-04T09:10:43.659Z,4.80
2023-02-04T09:13:11.778Z,3.90
2023-02-04T09:15:39.747Z,4.50
2023-02-04T09:18:19.120Z,2.90
2023-02-04T09:20:47.448Z,1.33
2023-02-04T09:23:16.598Z,4.57
2023-02-04T09:25:46.246Z,2.83
2023-02-04T09:28:16.944Z,1.97
2023-02-04T09:30:47.442Z,6.60
2023-02-04T09:33:17.065Z,2.53
2023-02-04T09:35:45.589Z,4.07
2023-02-04T09:38:13.686Z,3.40
2023-02-04T09:40:56.124Z,2.90
2023-02-04T09:43:31.183Z,2.10
2023-02-04T09:45:59.678Z,3.10
2023-02-04T09:48:46.567Z,1.83
2023-02-04T09:51:30.258Z,5.10
2023-02-04T09:54:28.403Z,5.57
2023-02-04T09:56:57.433Z,2.47
2023-02-04T09:59:29.588Z,3.67
2023-02-04T10:02:19.874Z,2.30
2023-02-04T10:04:48.183Z,3.00
2023-02-04T10:07:22.338Z,3.17
2023-02-04T10:09:51.470Z,0.87
2023-02-04T10:12:20.301Z,1.90
2023-02-04T10:14:48.788Z,4.20
2023-02-04T10:17:23.576Z,2.17
2023-02-04T10:19:51.901Z,0.83
2023-02-04T10:22:22.511Z,1.87
2023-02-04T10:24:50.373Z,2.57
2023-02-04T10:27:18.358Z,1.97
2023-02-04T10:29:59.391Z,4.47
2023-02-04T10:32:36.175Z,6.33
2023-02-04T10:35:04.675Z,1.50
2023-02-04T10:37:32.539Z,3.07
2023-02-04T10:40:00.491Z,3.70
2023-02-04T10:42:31.490Z,3.00
2023-02-04T10:44:59.668Z,1.60
2023-02-04T10:47:31.960Z,1.30
2023-02-04T10:50:15.678Z,1.53
2023-02-04T10:52:55.446Z,2.77
2023-02-04T10:55:25.866Z,1.50
2023-02-04T10:57:54.489Z,0.40
2023-02-04T11:00:26.684Z,4.23
2023-02-04T11:03:04.897Z,0.77
2023-02-04T11:05:39.136Z,1.47
2023-02-04T11:08:36.627Z,2.50
2023-02-04T11:11:25.590Z,1.03
2023-02-04T11:13:55.022Z,0.60
2023-02-04T11:16:35.449Z,1.27
2023-02-04T11:19:13.028Z,3.50
2023-02-04T11:21:46.070Z,2.90
2023-02-04T11:24:13.771Z,1.53
2023-02-04T11:26:54.571Z,2.60
2023-02-04T11:29:38.100Z,4.93
2023-02-04T11:32:38.775Z,1.67
2023-02-04T11:35:29.063Z,1.43
2023-02-04T11:37:58.724Z,4.17
2023-02-04T11:40:34.926Z,16.60
2023-02-04T11:43:24.728Z,3.37
2023-02-04T11:46:16.825Z,3.00
2023-02-04T11:48:45.091Z,3.07
2023-02-04T11:51:20.930Z,5.43
2023-02-04T11:53:52.824Z,0.80
2023-02-04T11:56:22.994Z,1.40
2023-02-04T11:58:51.321Z,2.07
2023-02-04T12:01:25.671Z,4.17
2023-02-04T12:04:08.144Z,3.67
2023-02-04T12:06:40.129Z,2.43
2023-02-04T12:09:16.780Z,7.50
2023-02-04T12:12:02.480Z,3.07
2023-02-04T12:14:38.790Z,3.33
2023-02-04T12:17:20.629Z,4.70
2023-02-04T12:19:48.571Z,6.87
2023-02-04T12:22:17.215Z,1.60
2023-02-04T12:24:45.266Z,1.07
2023-02-04T12:27:13.314Z,3.73
2023-02-04T12:29:41.203Z,1.97
2023-02-04T12:32:09.101Z,0.30
2023-02-04T12:34:36.997Z,4.53
2023-02-04T12:37:07.686Z,4.53
2023-02-04T12:39:35.884Z,5.90
2023-02-04T12:42:04.504Z,1.80
2023-02-04T12:44:32.429Z,2.00
2023-02-04T12:47:00.277Z,2.17
2023-02-04T12:49:28.219Z,4.83
2023-02-04T12:51:59.121Z,1.67
2023-02-04T12:54:26.972Z,3.57
2023-02-04T12:56:58.094Z,2.57
2023-02-04T12:59:26.467Z,1.90
2023-02-04T13:01:54.485Z,1.80
2023-02-04T13:04:22.380Z,2.13
2023-02-04T13:06:50.312Z,1.83
2023-02-04T13:09:18.171Z,1.37
2023-02-04T13:11:46.116Z,2.80
2023-02-04T13:14:13.993Z,2.87
2023-02-04T13:16:42.032Z,2.83
2023-02-04T13:19:09.853Z,2.30
2023-02-04T13:21:37.732Z,4.83
2023-02-04T13:24:05.749Z,6.13
2023-02-04T13:26:33.639Z,1.87
2023-02-04T13:29:01.496Z,1.33
2023-02-04T13:31:29.447Z,3.93
2023-02-04T13:33:57.344Z,7.53
2023-02-04T13:36:27.699Z,5.70
2023-02-04T13:38:55.958Z,6.87
2023-02-04T13:41:23.841Z,4.53
2023-02-04T13:43:52.070Z,7.40
2023-02-04T13:46:21.342Z,1.37
2023-02-04T13:48:50.738Z,3.67
2023-02-04T13:51:18.644Z,2.27
2023-02-04T13:53:46.572Z,1.17
2023-02-04T13:56:14.577Z,1.20
2023-02-04T13:58:43.858Z,1.33
2023-02-04T14:01:13.334Z,7.10
2023-02-04T14:03:42.772Z,0.20
2023-02-04T14:06:11.480Z,5.80
2023-02-04T14:08:39.555Z,0.63
2023-02-04T14:11:07.453Z,0.73
2023-02-04T14:13:35.730Z,4.97
2023-02-04T14:16:03.872Z,5.43
2023-02-04T14:18:31.866Z,3.10
2023-02-04T14:20:59.725Z,3.53
2023-02-04T14:23:27.677Z,0.20
2023-02-04T14:25:55.827Z,1.30
2023-02-04T14:28:23.741Z,3.77
2023-02-04T14:30:51.863Z,5.70
2023-02-04T14:33:20.644Z,1.60
2023-02-04T14:35:48.710Z,0.70
2023-02-04T14:38:19.657Z,1.73
2023-02-04T14:40:47.504Z,2.00
2023-02-04T14:43:15.369Z,2.90
2023-02-04T14:45:43.344Z,2.23
2023-02-04T14:48:11.335Z,1.70
2023-02-04T14:50:39.177Z,4.27
2023-02-04T14:53:07.167Z,1.20
2023-02-04T14:55:35.055Z,0.50
2023-02-04T14:58:03.030Z,1.33
2023-02-04T15:00:31.594Z,2.30
2023-02-04T15:02:59.674Z,2.30
2023-02-04T15:05:27.533Z,0.77
2023-02-04T15:07:55.493Z,0.77
2023-02-04T15:10:24.801Z,7.10
2023-02-04T15:12:55.192Z,1.33
2023-02-04T15:15:23.270Z,0.97
2023-02-04T15:17:51.453Z,3.30
2023-02-04T15:20:19.483Z,3.00
2023-02-04T15:22:51.756Z,1.93
2023-02-04T15:25:20.241Z,3.37
2023-02-04T15:27:48.308Z,1.67
2023-02-04T15:30:16.883Z,2.27
2023-02-04T15:32:46.019Z,3.67
2023-02-04T15:35:14.105Z,5.13
2023-02-04T15:37:41.984Z,1.40
2023-02-04T15:40:14.407Z,3.07
2023-02-04T15:42:42.865Z,2.77
2023-02-04T15:45:10.774Z,3.37
2023-02-04T15:47:38.724Z,1.40
2023-02-04T15:50:09.083Z,4.40
2023-02-04T15:52:37.589Z,1.63
2023-02-04T15:55:06.049Z,2.37
2023-02-04T15:57:34.038Z,1.13
2023-02-04T16:00:02.172Z,3.90
2023-02-04T16:02:30.166Z,9.33
2023-02-04T16:04:58.544Z,8.43
2023-02-04T16:07:26.414Z,9.03
2023-02-04T16:09:54.253Z,4.40
2023-02-04T16:12:22.092Z,3.30
2023-02-04T16:14:50.017Z,4.43
2023-02-04T16:17:19.135Z,3.87
2023-02-04T16:19:47.134Z,2.07
2023-02-04T16:22:15.140Z,1.60
2023-02-04T16:24:43.082Z,5.13
2023-02-04T16:27:11.394Z,4.03
2023-02-04T16:29:39.289Z,4.37
2023-02-04T16:32:07.154Z,5.07
2023-02-04T16:34:35.097Z,5.53
2023-02-04T16:37:02.998Z,6.23
2023-02-04T16:39:30.943Z,8.63
2023-02-04T16:41:59.044Z,7.67
2023-02-04T16:44:26.942Z,7.23
2023-02-04T16:46:55.213Z,5.50
2023-02-04T16:49:23.332Z,7.20
2023-02-04T16:51:51.216Z,2.83
2023-02-04T16:54:19.097Z,3.47
2023-02-04T16:56:47.412Z,4.60
2023-02-04T16:59:15.509Z,5.93
2023-02-04T17:01:43.398Z,3.60
2023-02-04T17:04:11.306Z,3.90
2023-02-04T17:06:39.429Z,6.30
2023-02-04T17:09:07.427Z,4.33
2023-02-04T17:11:36.949Z,3.27
2023-02-04T17:14:15.630Z,6.77
2023-02-04T17:16:45.628Z,5.00
2023-02-04T17:19:21.099Z,4.63
2023-02-04T17:21:49.341Z,3.87
2023-02-04T17:24:17.374Z,4.27
2023-02-04T17:26:47.446Z,3.40
2023-02-04T17:29:21.909Z,4.67
2023-02-04T17:31:49.930Z,10.13
2023-02-04T17:34:18.173Z,5.93
2023-02-04T17:36:46.216Z,3.33
2023-02-04T17:39:14.067Z,5.43
2023-02-04T17:41:41.940Z,5.03
2023-02-04T17:44:16.764Z,5.90
2023-02-04T17:46:44.737Z,11.67
2023-02-04T17:49:12.892Z,7.70
2023-02-04T17:51:40.933Z,11.60
2023-02-04T17:54:12.169Z,11.73
2023-02-04T17:56:40.107Z,10.03
2023-02-04T17:59:11.127Z,9.63
2023-02-04T18:01:41.753Z,13.17
2023-02-04T18:04:13.833Z,23.43
2023-02-04T18:06:41.792Z,18.80
2023-02-04T18:09:18.646Z,13.30
2023-02-04T18:11:46.833Z,8.47
2023-02-04T18:14:27.845Z,8.97
2023-02-04T18:16:59.569Z,9.90
2023-02-04T18:19:37.102Z,5.93
2023-02-04T18:22:17.207Z,8.40
2023-02-04T18:24:48.736Z,5.77
2023-02-04T18:27:31.139Z,9.30
2023-02-04T18:30:01.424Z,12.67
2023-02-04T18:32:48.234Z,6.83
2023-02-04T18:35:48.187Z,5.27
2023-02-04T18:38:37.083Z,6.87
2023-02-04T18:41:27.726Z,7.57
2023-02-04T18:44:16.744Z,3.73
2023-02-04T18:46:48.263Z,9.90
2023-02-04T18:49:39.703Z,4.63
2023-02-04T18:52:21.389Z,3.90
2023-02-04T18:55:00.659Z,5.93
2023-02-04T18:57:39.677Z,4.03
2023-02-04T19:00:10.218Z,1.80
2023-02-04T19:02:55.108Z,5.43
2023-02-04T19:05:42.627Z,12.47
2023-02-04T19:08:26.601Z,8.17
2023-02-04T19:10:59.973Z,7.20
2023-02-04T19:13:41.721Z,3.40
2023-02-04T19:16:25.566Z,5.67
2023-02-04T19:18:54.901Z,3.20
2023-02-04T19:21:34.204Z,4.27
2023-02-04T19:24:26.997Z,2.93
2023-02-04T19:27:01.429Z,2.93
2023-02-04T19:29:40.487Z,2.17
2023-02-04T19:32:37.667Z,4.37
2023-02-04T19:35:22.675Z,3.10
2023-02-04T19:38:41.754Z,5.53
2023-02-04T19:41:42.223Z,2.87
2023-02-04T19:44:12.881Z,5.57
2023-02-04T19:46:44.814Z,4.73
2023-02-04T19:49:36.813Z,2.80
2023-02-04T19:52:30.043Z,4.40
2023-02-04T19:55:44.145Z,3.43
2023-02-04T19:58:23.006Z,5.07
2023-02-04T20:01:11.173Z,5.27
2023-02-04T20:03:45.481Z,7.37
2023-02-04T20:06:30.639Z,3.13
2023-02-04T20:09:28.589Z,5.47
2023-02-04T20:12:23.045Z,5.47
2023-02-04T20:14:57.192Z,11.63
2023-02-04T20:18:20.001Z,9.37
2023-02-04T20:20:47.889Z,11.80
2023-02-04T20:23:31.843Z,10.43
2023-02-04T20:26:01.833Z,6.97
2023-02-04T20:28:45.698Z,5.03
2023-02-04T20:31:34.757Z,5.50
2023-02-04T20:34:02.620Z,4.50
2023-02-04T20:36:42.486Z,3.80
2023-02-04T20:39:29.832Z,6.77
2023-02-04T20:42:45.059Z,5.93
2023-02-04T20:45:54.915Z,5.03
2023-02-04T20:48:37.527Z,4.97
2023-02-04T20:51:14.869Z,5.97
2023-02-04T20:53:55.456Z,4.63
2023-02-04T20:56:30.386Z,6.70
2023-02-04T20:59:30.426Z,5.23
2023-02-04T21:02:00.264Z,4.63
2023-02-04T21:04:43.845Z,3.23
2023-02-04T21:07:21.122Z,3.13
2023-02-04T21:09:49.894Z,5.00
2023-02-04T21:12:17.807Z,6.23
2023-02-04T21:14:45.727Z,4.20
2023-02-04T21:17:13.591Z,6.00
2023-02-04T21:19:41.454Z,4.47
2023-02-04T21:22:09.363Z,5.20
2023-02-04T21:24:37.268Z,6.10
2023-02-04T21:27:05.210Z,3.93
2023-02-04T21:29:33.081Z,4.50
2023-02-04T21:32:03.026Z,8.37
2023-02-04T21:34:31.337Z,6.27
2023-02-04T21:36:59.252Z,7.20
2023-02-04T21:39:27.486Z,6.00
2023-02-04T21:42:09.951Z,6.07
2023-02-04T21:44:38.668Z,6.37
2023-02-04T21:47:06.549Z,5.77
2023-02-04T21:49:34.393Z,5.93
2023-02-04T21:52:02.262Z,10.17
2023-02-04T21:54:30.115Z,10.90
2023-02-04T21:57:01.856Z,7.13
2023-02-04T21:59:32.763Z,10.33
2023-02-04T22:02:00.724Z,13.00
2023-02-04T22:04:28.747Z,7.90
2023-02-04T22:06:56.582Z,12.60
2023-02-04T22:09:24.539Z,7.87
2023-02-04T22:11:55.374Z,6.73
2023-02-04T22:14:23.372Z,7.57
2023-02-04T22:16:51.247Z,9.37
2023-02-04T22:19:19.630Z,9.50
2023-02-04T22:21:47.476Z,6.20
2023-02-04T22:24:15.421Z,7.80
2023-02-04T22:26:43.443Z,6.33
2023-02-04T22:29:13.689Z,7.57
2023-02-04T22:31:41.775Z,4.57
2023-02-04T22:34:09.896Z,5.50
2023-02-04T22:36:38.464Z,3.30
2023-02-04T22:39:06.820Z,4.90
2023-02-04T22:41:34.707Z,5.20
2023-02-04T22:44:02.630Z,6.57
2023-02-04T22:46:30.589Z,8.00
2023-02-04T22:48:58.529Z,2.80
2023-02-04T22:51:29.086Z,5.00
2023-02-04T22:53:56.924Z,2.77
2023-02-04T22:56:24.878Z,2.50
2023-02-04T22:58:55.471Z,1.67
2023-02-04T23:01:23.355Z,0.77
2023-02-04T23:03:51.271Z,4.53
2023-02-04T23:06:19.161Z,1.80
2023-02-04T23:08:47.333Z,2.50
2023-02-04T23:11:18.441Z,1.23
2023-02-04T23:13:46.629Z,3.03
2023-02-04T23:16:14.599Z,2.00
2023-02-04T23:18:42.510Z,2.90
2023-02-04T23:21:10.719Z,1.03
2023-02-04T23:23:38.823Z,6.83
2023-02-04T23:26:06.956Z,3.37
2023-02-04T23:28:34.781Z,2.90
2023-02-04T23:31:02.701Z,2.37
2023-02-04T23:33:30.648Z,6.47
2023-02-04T23:35:58.725Z,2.67
2023-02-04T23:38:26.839Z,3.47
2023-02-04T23:40:56.990Z,4.73
2023-02-04T23:43:24.844Z,3.30
2023-02-04T23:45:52.933Z,2.77
2023-02-04T23:48:20.812Z,2.97
2023-02-04T23:50:48.713Z,3.93
2023-02-04T23:53:16.574Z,3.00
2023-02-04T23:55:44.907Z,3.57
2023-02-04T23:58:12.842Z,3.80
